Terminal Aerodrome Forecast
Issued by NWS

Home | Current Version | Previous Version | Text Only | Print | Product List | Glossary On
Versions: 1 2 3 4 5 6 7 8 9 10 11 12 13 14 15 16
000
FTUS45 KCYS 171700
TAFRWL
TAF
KRWL 171721Z 1718/1818 25012G22KT P6SM FEW150
     FM172000 24016G26KT P6SM SCT050
     FM180100 23011KT P6SM FEW080
     FM181500 25017G27KT P6SM SCT050=

USA.gov is the U.S. government's official web portal to all federal, state and local government web resources and services.